Time;durP1;ratioP1;P1;durP2;ratioP2;P2;SDS_P1;SDS_P2;PMS_P1;PMS_P2;Temp;Humidity;BMP_temperature;BMP_pressure;BME280_temperature;BME280_humidity;BME280_pressure;Samples;Min_cycle;Max_cycle;Signal;HPM_P1;HPM_P2
2022/04/19 00:00:27;;;;;;;12.32;7.32;;;11.90;26.00;;;;;;5092335;28;20405;-69
2022/04/19 00:02:53;;;;;;;16.07;7.37;;;11.90;24.90;;;;;;5092506;28;20508;-69
2022/04/19 00:05:19;;;;;;;16.17;7.68;;;11.80;27.10;;;;;;5104306;28;20506;-69
2022/04/19 00:07:44;;;;;;;13.97;7.50;;;11.80;26.70;;;;;;5112168;28;20209;-69
2022/04/19 00:10:10;;;;;;;15.53;6.93;;;11.90;25.70;;;;;;5111072;28;20178;-69
2022/04/19 00:12:36;;;;;;;11.80;6.73;;;12.00;25.00;;;;;;5112224;28;20170;-69
2022/04/19 00:15:02;;;;;;;11.27;6.93;;;11.80;25.70;;;;;;5105630;28;20209;-69
2022/04/19 00:17:28;;;;;;;15.07;7.15;;;11.60;26.70;;;;;;5112385;28;20208;-69
2022/04/19 00:19:53;;;;;;;14.40;7.13;;;11.70;26.10;;;;;;5112936;28;20170;-69
2022/04/19 00:22:19;;;;;;;12.93;6.90;;;11.50;27.10;;;;;;5112861;28;20165;-69
2022/04/19 00:24:44;;;;;;;11.57;7.00;;;11.40;27.20;;;;;;5107869;28;20273;-68
2022/04/19 00:27:10;;;;;;;14.80;7.23;;;11.20;27.20;;;;;;5112529;28;20192;-69
2022/04/19 00:29:37;;;;;;;10.90;6.77;;;11.40;26.60;;;;;;5109450;28;20544;-69
2022/04/19 00:32:03;;;;;;;13.45;7.13;;;11.50;25.80;;;;;;5108922;28;20525;-69
2022/04/19 00:34:29;;;;;;;16.33;7.10;;;11.40;26.90;;;;;;5091575;28;20287;-68
2022/04/19 00:36:55;;;;;;;12.60;6.87;;;11.30;28.60;;;;;;5110026;28;20295;-68
2022/04/19 00:39:20;;;;;;;15.83;7.30;;;11.40;26.60;;;;;;5110664;28;20184;-69
2022/04/19 00:41:48;;;;;;;12.47;7.63;;;11.20;28.70;;;;;;5111110;28;20168;-69
2022/04/19 00:44:14;;;;;;;13.02;6.85;;;11.10;29.90;;;;;;5105934;28;20200;-69
2022/04/19 00:46:39;;;;;;;11.97;6.33;;;11.00;28.40;;;;;;5088087;28;20281;-69
2022/04/19 00:49:05;;;;;;;12.50;7.30;;;11.20;27.40;;;;;;5108448;28;20195;-69
2022/04/19 00:51:31;;;;;;;11.20;6.83;;;11.30;27.00;;;;;;5091686;28;20173;-69
2022/04/19 00:53:58;;;;;;;17.30;7.13;;;11.30;26.70;;;;;;5092016;28;20184;-68
2022/04/19 00:56:24;;;;;;;13.30;7.32;;;11.30;26.70;;;;;;5094541;28;20210;-69
2022/04/19 00:58:50;;;;;;;19.53;8.47;;;11.00;28.00;;;;;;5109481;28;20169;-69
2022/04/19 01:01:16;;;;;;;16.15;8.38;;;10.90;29.00;;;;;;5112251;28;20252;-69
2022/04/19 01:03:42;;;;;;;13.43;7.50;;;10.90;29.10;;;;;;5111065;28;20210;-69
2022/04/19 01:06:08;;;;;;;16.25;7.72;;;11.10;28.10;;;;;;5107839;28;20676;-69
2022/04/19 01:08:34;;;;;;;13.17;7.63;;;11.00;29.10;;;;;;5106224;28;20194;-69
2022/04/19 01:13:43;;;;;;;15.10;7.88;;;10.60;29.30;;;;;;5111937;28;20309;-69
2022/04/19 01:16:09;;;;;;;13.43;7.60;;;10.50;28.80;;;;;;5090412;28;20300;-69
2022/04/19 01:18:35;;;;;;;12.13;7.10;;;10.60;28.60;;;;;;5105294;28;20750;-69
2022/04/19 01:21:02;;;;;;;14.57;7.45;;;10.60;28.90;;;;;;5109543;28;20173;-69
2022/04/19 01:23:29;;;;;;;12.27;7.35;;;10.60;29.20;;;;;;5108401;28;20235;-69
2022/04/19 01:25:57;;;;;;;12.73;7.10;;;10.50;29.80;;;;;;5104727;28;20201;-68
2022/04/19 01:28:22;;;;;;;13.25;6.97;;;10.50;28.30;;;;;;5104115;28;20547;-69
2022/04/19 01:30:52;;;;;;;15.90;8.17;;;10.50;28.70;;;;;;5111490;28;20249;-69
2022/04/19 01:33:18;;;;;;;11.15;7.07;;;10.30;29.40;;;;;;5102525;28;20433;-69
2022/04/19 01:35:44;;;;;;;15.27;7.80;;;10.30;29.00;;;;;;5111292;28;20272;-69
2022/04/19 01:38:09;;;;;;;12.30;7.87;;;10.30;28.90;;;;;;5107861;28;21108;-68
2022/04/19 01:40:35;;;;;;;11.40;7.17;;;10.30;30.40;;;;;;5098628;28;20210;-68
2022/04/19 01:43:03;;;;;;;12.40;7.17;;;10.20;30.00;;;;;;5107520;28;20593;-69
2022/04/19 01:45:31;;;;;;;12.90;6.53;;;10.00;28.80;;;;;;5110713;28;20189;-69
2022/04/19 01:47:58;;;;;;;13.30;7.93;;;10.10;29.10;;;;;;5109937;28;20254;-69
2022/04/19 01:50:26;;;;;;;12.60;7.50;;;10.00;30.90;;;;;;5109582;28;20177;-69
2022/04/19 01:52:54;;;;;;;13.80;7.63;;;9.90;31.00;;;;;;5109624;28;20181;-69
2022/04/19 01:55:20;;;;;;;13.50;8.00;;;10.00;29.90;;;;;;5111204;28;20197;-69
2022/04/19 01:57:52;;;;;;;15.98;7.95;;;9.90;32.10;;;;;;5101500;28;20289;-69
2022/04/19 02:00:18;;;;;;;13.52;6.88;;;9.90;30.50;;;;;;5091145;28;20221;-69
2022/04/19 02:02:45;;;;;;;13.25;7.32;;;9.90;29.80;;;;;;5093634;28;20185;-69
2022/04/19 02:05:12;;;;;;;9.27;6.20;;;10.10;29.00;;;;;;5110137;28;20217;-69
2022/04/19 02:07:42;;;;;;;14.85;7.20;;;10.30;27.90;;;;;;5110129;28;20535;-69
2022/04/19 02:10:09;;;;;;;11.70;6.85;;;10.40;28.40;;;;;;5110213;28;20640;-69
2022/04/19 02:12:36;;;;;;;10.88;6.32;;;10.10;30.10;;;;;;5108806;28;20210;-68
2022/04/19 02:15:03;;;;;;;10.57;6.70;;;10.00;30.10;;;;;;5106897;28;20202;-68
2022/04/19 02:17:29;;;;;;;10.80;6.53;;;9.90;29.80;;;;;;5108528;28;20711;-69
2022/04/19 02:20:01;;;;;;;9.40;5.67;;;9.90;31.60;;;;;;5107393;28;20202;-69
2022/04/19 02:22:28;;;;;;;11.98;6.43;;;10.00;28.10;;;;;;5090690;28;20637;-69
2022/04/19 02:24:55;;;;;;;11.57;6.13;;;10.10;27.80;;;;;;5109944;28;20290;-68
2022/04/19 02:27:21;;;;;;;11.52;6.50;;;9.90;29.90;;;;;;5111168;28;20174;-69
2022/04/19 02:29:47;;;;;;;11.80;6.05;;;9.70;31.90;;;;;;5110369;28;20444;-69
2022/04/19 02:32:13;;;;;;;11.00;5.50;;;9.60;31.50;;;;;;5097931;28;20261;-69
2022/04/19 02:34:39;;;;;;;9.40;5.90;;;9.50;30.00;;;;;;5097581;28;20285;-69
2022/04/19 02:37:04;;;;;;;18.63;6.13;;;9.40;30.90;;;;;;5108803;28;20209;-69
2022/04/19 02:39:30;;;;;;;10.43;5.90;;;9.40;30.20;;;;;;5113728;28;20959;-70
2022/04/19 02:41:56;;;;;;;11.73;6.13;;;9.60;30.90;;;;;;5114677;28;20411;-69
2022/04/19 02:44:21;;;;;;;13.73;6.23;;;9.60;31.60;;;;;;5111493;28;20194;-69
2022/04/19 02:46:49;;;;;;;8.37;5.80;;;9.70;30.80;;;;;;5109907;28;20231;-69
2022/04/19 02:49:15;;;;;;;15.13;6.38;;;10.00;29.70;;;;;;5100985;28;20181;-69
2022/04/19 02:51:40;;;;;;;10.60;6.23;;;9.80;30.60;;;;;;5093714;28;20179;-69
2022/04/19 02:54:06;;;;;;;9.73;5.83;;;9.90;29.70;;;;;;5109775;28;20179;-68
2022/04/19 02:56:31;;;;;;;8.80;5.93;;;9.60;30.90;;;;;;5108753;28;20198;-69
2022/04/19 02:58:59;;;;;;;10.70;6.53;;;9.40;32.80;;;;;;5114564;28;20177;-69
2022/04/19 03:01:29;;;;;;;14.88;6.85;;;9.30;32.70;;;;;;5114515;28;20166;-69
2022/04/19 03:03:55;;;;;;;12.75;7.10;;;9.30;32.50;;;;;;5114190;28;20174;-69
2022/04/19 03:06:20;;;;;;;11.20;5.87;;;9.60;31.60;;;;;;5104877;28;20189;-68
2022/04/19 03:08:46;;;;;;;9.60;6.40;;;9.40;33.10;;;;;;5113665;28;20457;-69
2022/04/19 03:11:12;;;;;;;15.10;6.33;;;9.30;32.50;;;;;;5106975;28;20447;-69
2022/04/19 03:13:38;;;;;;;12.70;6.60;;;9.30;32.70;;;;;;5111055;28;20677;-69
2022/04/19 03:16:04;;;;;;;11.40;6.50;;;9.20;32.30;;;;;;5105596;28;20213;-69
2022/04/19 03:18:32;;;;;;;14.07;6.93;;;9.10;32.60;;;;;;5113365;28;20412;-68
2022/04/19 03:20:59;;;;;;;13.77;6.88;;;9.20;32.60;;;;;;5106192;28;20458;-69
2022/04/19 03:28:53;;;;;;;14.82;7.10;;;9.30;32.70;;;;;;5107253;28;20193;-68
2022/04/19 03:31:22;;;;;;;14.00;7.55;;;9.50;31.00;;;;;;5111978;28;20211;-67
2022/04/19 03:33:51;;;;;;;15.35;7.50;;;9.50;30.80;;;;;;5104033;28;20559;-68
2022/04/19 03:36:17;;;;;;;13.00;7.47;;;9.40;31.90;;;;;;5111997;28;20251;-68
2022/04/19 03:38:43;;;;;;;12.53;7.57;;;9.30;32.70;;;;;;5108538;28;20688;-67
2022/04/19 03:41:09;;;;;;;13.55;7.00;;;9.20;32.80;;;;;;5110216;28;20925;-68
2022/04/19 03:43:37;;;;;;;14.13;7.70;;;9.30;32.70;;;;;;5112653;28;20182;-68
2022/04/19 03:46:02;;;;;;;11.32;6.90;;;9.20;32.60;;;;;;5113290;28;20186;-68
2022/04/19 03:48:28;;;;;;;11.90;7.07;;;9.20;32.60;;;;;;5106199;28;20178;-68
2022/04/19 03:50:54;;;;;;;16.23;8.13;;;9.10;32.50;;;;;;5111518;28;20234;-68
2022/04/19 03:53:20;;;;;;;12.17;7.60;;;8.90;33.60;;;;;;5112241;28;20244;-66
2022/04/19 03:55:45;;;;;;;16.90;7.60;;;8.80;34.90;;;;;;5111533;28;20266;-68
2022/04/19 03:58:11;;;;;;;12.80;7.60;;;8.80;34.30;;;;;;5109875;28;20213;-68
2022/04/19 04:00:37;;;;;;;14.30;7.00;;;8.90;33.90;;;;;;5112484;28;20230;-68
2022/04/19 04:03:04;;;;;;;15.63;7.60;;;8.80;33.40;;;;;;5113122;28;20174;-68
2022/04/19 04:05:30;;;;;;;13.57;7.53;;;8.70;36.20;;;;;;5113079;28;20212;-68
2022/04/19 04:07:57;;;;;;;12.35;7.43;;;8.70;34.80;;;;;;5110289;28;20170;-67
2022/04/19 04:10:23;;;;;;;12.18;7.13;;;8.90;34.30;;;;;;5111862;28;20186;-68
2022/04/19 04:12:49;;;;;;;14.23;7.05;;;8.70;33.30;;;;;;5111495;28;20671;-68
2022/04/19 04:15:14;;;;;;;18.90;6.90;;;8.80;33.80;;;;;;5092616;28;20205;-67
2022/04/19 04:17:40;;;;;;;12.50;6.53;;;8.90;32.60;;;;;;5111094;28;20197;-68
2022/04/19 04:20:06;;;;;;;14.00;7.10;;;8.70;33.50;;;;;;5107441;28;20182;-68
2022/04/19 04:22:32;;;;;;;16.50;7.57;;;8.80;33.10;;;;;;5109603;28;20942;-66
2022/04/19 04:24:58;;;;;;;19.80;7.57;;;8.90;34.70;;;;;;5112307;28;20194;-68
2022/04/19 04:27:23;;;;;;;11.20;6.83;;;7.00;32.60;;;;;;5113039;28;20180;-67
2022/04/19 04:29:49;;;;;;;10.50;6.37;;;8.50;33.80;;;;;;5108590;28;20190;-68
2022/04/19 04:32:16;;;;;;;12.23;6.90;;;8.50;33.80;;;;;;5111588;28;20224;-67
2022/04/19 04:34:42;;;;;;;18.33;6.90;;;8.50;33.60;;;;;;5111421;28;20209;-68
2022/04/19 04:37:07;;;;;;;16.77;6.73;;;8.50;33.50;;;;;;5112753;28;20202;-68
2022/04/19 04:39:33;;;;;;;12.70;6.93;;;8.30;33.60;;;;;;5111925;28;20981;-67
2022/04/19 04:41:59;;;;;;;14.10;6.90;;;7.20;35.30;;;;;;5109955;28;20220;-67
2022/04/19 04:44:24;;;;;;;16.23;7.70;;;7.10;36.60;;;;;;5112422;28;20773;-67
2022/04/19 04:49:37;;;;;;;16.27;7.47;;;7.80;34.70;;;;;;5103602;28;20254;-65
2022/04/19 04:52:08;;;;;;;16.33;7.40;;;8.00;35.50;;;;;;5108243;28;20212;-68
2022/04/19 04:54:34;;;;;;;15.93;7.38;;;8.20;34.90;;;;;;5104600;28;20201;-67
2022/04/19 04:57:04;;;;;;;18.02;7.95;;;8.20;35.30;;;;;;5112583;28;20626;-68
2022/04/19 04:59:30;;;;;;;12.95;7.10;;;8.30;35.20;;;;;;5111987;28;20170;-67
2022/04/19 05:01:57;;;;;;;15.32;7.50;;;8.30;34.50;;;;;;5107499;28;20194;-67
2022/04/19 05:04:22;;;;;;;12.25;7.10;;;8.40;33.90;;;;;;5097329;28;20283;-68
2022/04/19 05:06:48;;;;;;;11.83;7.70;;;8.70;33.90;;;;;;5091867;28;20625;-68
2022/04/19 05:09:13;;;;;;;13.80;7.50;;;8.70;34.60;;;;;;5102256;28;20182;-67
2022/04/19 05:11:42;;;;;;;13.53;7.57;;;8.70;33.20;;;;;;5104315;28;20205;-68
2022/04/19 05:14:08;;;;;;;13.07;7.13;;;8.80;33.10;;;;;;5111769;28;20209;-67
2022/04/19 05:16:36;;;;;;;35.00;9.50;;;8.80;32.20;;;;;;5111915;28;20233;-68
2022/04/19 05:19:03;;;;;;;17.45;7.82;;;8.80;31.80;;;;;;5108620;28;20424;-68
2022/04/19 05:21:29;;;;;;;13.25;7.80;;;9.00;33.40;;;;;;5104904;28;20593;-68
2022/04/19 05:23:55;;;;;;;23.27;8.27;;;9.00;32.50;;;;;;5093126;28;20350;-72
2022/04/19 05:26:21;;;;;;;24.03;7.70;;;8.90;31.60;;;;;;5110617;28;20245;-68
2022/04/19 05:28:47;;;;;;;20.55;7.85;;;8.80;32.30;;;;;;5105592;28;20952;-68
2022/04/19 05:31:13;;;;;;;19.33;7.97;;;8.90;31.30;;;;;;5109460;28;20489;-68
2022/04/19 05:33:38;;;;;;;24.60;8.60;;;8.40;32.80;;;;;;5110102;28;20178;-69
2022/04/19 05:36:04;;;;;;;23.30;8.70;;;7.70;34.70;;;;;;5103344;28;20207;-67
2022/04/19 05:38:30;;;;;;;16.20;8.37;;;7.70;35.10;;;;;;5107638;28;20272;-67
2022/04/19 05:40:56;;;;;;;20.83;8.37;;;8.20;34.10;;;;;;5103180;28;20435;-71
2022/04/19 05:43:22;;;;;;;24.75;10.77;;;8.20;33.50;;;;;;5102680;28;20197;-71
2022/04/19 05:45:48;;;;;;;24.17;9.00;;;8.30;34.00;;;;;;5110930;28;20661;-71
2022/04/19 05:48:13;;;;;;;21.17;8.60;;;8.70;32.20;;;;;;5110560;28;20439;-71
2022/04/19 05:50:39;;;;;;;16.67;7.93;;;9.10;32.60;;;;;;5106500;28;20177;-71
2022/04/19 05:53:05;;;;;;;16.53;8.50;;;9.50;31.70;;;;;;5112024;28;20174;-73
2022/04/19 05:55:32;;;;;;;15.70;8.10;;;9.70;30.70;;;;;;5110993;28;20259;-72
2022/04/19 05:57:58;;;;;;;13.05;8.30;;;9.70;30.00;;;;;;5098898;28;20713;-71
2022/04/19 06:00:24;;;;;;;25.17;8.50;;;9.40;30.00;;;;;;5114394;28;20186;-70
2022/04/19 06:05:35;;;;;;;22.50;8.95;;;9.90;29.70;;;;;;5117232;28;20886;-72
2022/04/19 06:08:00;;;;;;;24.13;9.00;;;9.90;29.60;;;;;;5116201;28;20189;-72
2022/04/19 06:10:26;;;;;;;21.23;8.73;;;10.30;28.10;;;;;;5115824;28;20241;-72
2022/04/19 06:12:52;;;;;;;17.00;8.20;;;11.00;26.90;;;;;;5099457;28;20180;-72
2022/04/19 06:15:17;;;;;;;13.57;8.17;;;11.40;26.90;;;;;;5115812;28;20443;-72
2022/04/19 06:17:43;;;;;;;18.53;9.03;;;11.60;26.00;;;;;;5120283;28;20271;-72
2022/04/19 06:20:10;;;;;;;19.13;9.50;;;11.80;26.70;;;;;;5119236;28;20170;-72
2022/04/19 06:22:36;;;;;;;16.23;7.95;;;11.70;26.60;;;;;;5099383;28;20185;-71
2022/04/19 06:25:02;;;;;;;14.57;8.73;;;11.40;25.60;;;;;;5140660;22;20221;-77
2022/04/19 06:27:28;;;;;;;12.63;8.43;;;11.40;27.20;;;;;;5102919;28;20827;-75
2022/04/19 06:29:56;;;;;;;18.70;8.53;;;11.00;27.20;;;;;;5124860;28;20185;-79
2022/04/19 06:32:22;;;;;;;20.33;8.87;;;10.80;28.30;;;;;;5102778;28;20213;-78
2022/04/19 06:34:48;;;;;;;17.80;9.50;;;10.70;27.40;;;;;;5108601;28;20454;-77
2022/04/19 06:37:14;;;;;;;17.23;8.70;;;10.50;27.50;;;;;;5115044;28;20824;-76
2022/04/19 06:39:40;;;;;;;22.00;9.43;;;10.80;26.60;;;;;;5107020;28;20412;-76
2022/04/19 06:42:05;;;;;;;19.70;9.23;;;10.80;26.60;;;;;;5103035;28;20767;-76
2022/04/19 06:44:31;;;;;;;14.60;8.73;;;10.90;26.90;;;;;;5107443;28;20221;-76
2022/04/19 06:46:57;;;;;;;22.40;9.30;;;10.60;27.00;;;;;;5096237;28;20484;-76
2022/04/19 06:49:23;;;;;;;17.63;10.23;;;10.40;27.40;;;;;;5110243;28;20261;-75
2022/04/19 06:51:49;;;;;;;22.17;8.93;;;9.80;29.00;;;;;;5101414;28;20169;-76
2022/04/19 06:54:15;;;;;;;15.88;8.60;;;9.30;30.30;;;;;;5112830;28;20202;-76
2022/04/19 06:56:41;;;;;;;16.33;8.67;;;9.50;30.00;;;;;;5107277;28;20201;-77
2022/04/19 06:59:10;;;;;;;18.90;8.30;;;12.50;32.10;;;;;;5105969;28;20937;-77
2022/04/19 07:01:38;;;;;;;12.60;7.30;;;9.00;30.70;;;;;;5103330;28;20415;-77
2022/04/19 07:04:04;;;;;;;14.60;8.13;;;8.80;30.60;;;;;;5097569;28;20447;-76
2022/04/19 07:06:29;;;;;;;15.07;8.20;;;8.70;32.30;;;;;;5100388;28;20186;-76
2022/04/19 07:08:55;;;;;;;21.50;9.73;;;9.10;31.70;;;;;;5106422;28;20442;-76
2022/04/19 07:11:20;;;;;;;31.57;9.37;;;9.60;31.10;;;;;;5114557;28;20188;-75
2022/04/19 07:13:46;;;;;;;21.40;9.50;;;10.00;29.70;;;;;;5114071;28;20190;-76
2022/04/19 07:16:12;;;;;;;19.50;9.60;;;10.80;27.80;;;;;;5113259;28;20264;-76
2022/04/19 07:18:37;;;;;;;19.13;8.40;;;10.70;28.30;;;;;;5102631;28;20178;-76
2022/04/19 07:26:47;;;;;;;21.87;8.70;;;11.70;27.90;;;;;;5100370;28;20988;-72
2022/04/19 07:29:15;;;;;;;14.90;9.20;;;11.80;26.20;;;;;;5101520;28;20938;-75
2022/04/19 07:31:48;;;;;;;18.90;8.97;;;12.00;26.60;;;;;;5099592;28;20490;-76
2022/04/19 07:34:14;;;;;;;22.07;8.30;;;12.10;26.40;;;;;;5111038;28;20547;-74
2022/04/19 07:36:41;;;;;;;14.27;8.47;;;12.40;26.50;;;;;;5099364;28;20536;-74
2022/04/19 07:39:11;;;;;;;13.77;7.97;;;13.00;24.60;;;;;;5102635;28;20519;-75
2022/04/19 07:41:37;;;;;;;13.57;8.13;;;13.40;24.20;;;;;;5104192;28;20436;-73
2022/04/19 07:44:14;;;;;;;19.10;8.80;;;13.90;23.30;;;;;;5098594;27;20456;-74
2022/04/19 07:46:41;;;;;;;22.03;8.37;;;14.00;22.50;;;;;;5081617;28;20958;-74
2022/04/19 07:49:07;;;;;;;16.23;7.60;;;13.80;23.10;;;;;;5099634;28;20439;-75
2022/04/19 07:51:34;;;;;;;18.33;8.20;;;13.30;23.00;;;;;;5111234;28;20416;-76
2022/04/19 07:54:01;;;;;;;16.30;8.50;;;12.80;23.60;;;;;;5112728;28;20194;-76
2022/04/19 07:56:26;;;;;;;14.17;8.33;;;12.90;24.00;;;;;;5096995;28;20459;-76
2022/04/19 07:58:52;;;;;;;16.73;8.47;;;12.90;23.50;;;;;;5113522;28;20431;-74
2022/04/19 08:01:19;;;;;;;15.90;8.33;;;12.90;24.20;;;;;;5103349;27;20176;-75
2022/04/19 08:03:45;;;;;;;15.83;8.90;;;13.50;23.60;;;;;;5081984;28;20984;-75
2022/04/19 08:06:12;;;;;;;15.10;9.13;;;13.70;23.50;;;;;;5102532;28;20526;-75
2022/04/19 08:08:38;;;;;;;15.80;9.20;;;13.70;22.00;;;;;;5098247;28;20823;-76
2022/04/19 08:11:04;;;;;;;21.40;9.63;;;13.50;22.90;;;;;;5098088;27;20442;-76
2022/04/19 08:13:29;;;;;;;13.13;9.00;;;14.10;22.30;;;;;;5100852;28;20507;-75
2022/04/19 08:15:55;;;;;;;18.50;9.70;;;12.20;21.60;;;;;;5096824;28;20505;-75
2022/04/19 08:18:21;;;;;;;16.90;9.70;;;14.70;22.50;;;;;;5092716;28;20204;-76
2022/04/19 08:20:47;;;;;;;16.50;8.77;;;15.20;21.90;;;;;;5098824;28;20250;-76
2022/04/19 08:23:13;;;;;;;19.47;9.63;;;14.70;21.70;;;;;;5095901;28;20411;-76
2022/04/19 08:25:40;;;;;;;19.97;10.13;;;13.70;22.40;;;;;;5111778;28;20968;-76
2022/04/19 08:28:07;;;;;;;21.93;7.97;;;13.70;22.20;;;;;;5092641;28;20418;-76
2022/04/19 08:30:33;;;;;;;13.80;8.17;;;13.70;22.40;;;;;;5100240;28;20482;-72
2022/04/19 08:32:59;;;;;;;15.07;8.73;;;13.70;21.90;;;;;;5100194;28;20454;-72
2022/04/19 08:35:25;;;;;;;20.73;7.90;;;13.70;22.10;;;;;;5091750;28;21376;-73
2022/04/19 08:37:52;;;;;;;18.23;9.03;;;14.50;21.50;;;;;;5110834;28;20478;-74
2022/04/19 08:40:18;;;;;;;22.53;8.20;;;14.80;21.00;;;;;;5110880;28;20451;-74
2022/04/19 08:42:45;;;;;;;13.43;8.30;;;15.20;20.90;;;;;;5107155;28;20419;-72
2022/04/19 08:45:13;;;;;;;12.53;8.10;;;15.20;19.60;;;;;;5112145;28;20435;-74
2022/04/19 08:47:44;;;;;;;12.03;7.13;;;15.30;18.90;;;;;;5112284;28;20414;-73
2022/04/19 08:50:18;;;;;;;18.03;8.40;;;15.60;18.70;;;;;;5106966;28;20981;-74
2022/04/19 08:52:44;;;;;;;20.93;8.53;;;15.40;18.50;;;;;;5092123;28;20785;-73
2022/04/19 08:57:56;;;;;;;15.50;8.73;;;16.20;17.70;;;;;;5099094;28;20514;-74
2022/04/19 09:00:23;;;;;;;14.60;8.43;;;15.10;19.30;;;;;;5096319;28;20435;-74
2022/04/19 09:02:51;;;;;;;16.10;9.67;;;15.10;19.40;;;;;;5096305;28;20436;-73
2022/04/19 09:05:26;;;;;;;16.53;9.10;;;14.80;19.90;;;;;;5097453;28;21164;-71
2022/04/19 09:07:53;;;;;;;15.20;9.20;;;15.50;19.10;;;;;;5096847;28;20434;-73
2022/04/19 09:10:31;;;;;;;15.90;9.70;;;15.30;18.70;;;;;;5099481;28;20433;-72
2022/04/19 09:13:21;;;;;;;17.37;9.93;;;15.10;18.10;;;;;;5099268;28;20511;-74
2022/04/19 09:15:47;;;;;;;12.33;8.00;;;15.80;18.00;;;;;;5102777;28;20535;-75
2022/04/19 09:18:24;;;;;;;14.73;8.53;;;16.30;18.50;;;;;;5092702;28;20548;-74
2022/04/19 09:20:53;;;;;;;17.90;8.50;;;15.40;17.50;;;;;;5095682;28;20180;-75
2022/04/19 09:23:20;;;;;;;13.60;8.53;;;15.00;18.40;;;;;;5111690;28;20417;-74
2022/04/19 09:25:46;;;;;;;17.13;8.57;;;15.50;18.20;;;;;;5111771;28;20451;-74
2022/04/19 09:28:19;;;;;;;12.93;8.07;;;16.40;17.00;;;;;;5111773;28;20440;-74
2022/04/19 09:30:48;;;;;;;14.00;8.57;;;17.10;18.00;;;;;;5111605;28;20903;-73
2022/04/19 09:33:15;;;;;;;12.40;7.70;;;16.80;16.90;;;;;;5109810;28;20432;-74
2022/04/19 09:35:55;;;;;;;17.00;8.03;;;16.20;16.70;;;;;;5111377;28;20922;-74
2022/04/19 09:38:35;;;;;;;19.33;8.13;;;16.00;17.30;;;;;;5111646;28;20443;-74
2022/04/19 09:41:00;;;;;;;12.83;8.40;;;16.20;17.10;;;;;;5111359;28;20407;-74
2022/04/19 09:43:26;;;;;;;10.50;7.40;;;16.30;17.80;;;;;;5109697;28;20416;-74
2022/04/19 09:45:51;;;;;;;11.60;7.10;;;17.00;17.20;;;;;;5111302;28;20534;-74
2022/04/19 09:48:19;;;;;;;19.97;6.90;;;17.70;14.90;;;;;;5111375;28;20174;-74
2022/04/19 09:50:54;;;;;;;11.37;6.83;;;16.80;15.50;;;;;;5111230;28;20173;-74
2022/04/19 09:53:22;;;;;;;9.00;6.30;;;17.70;14.90;;;;;;5109752;28;20908;-74
2022/04/19 09:55:52;;;;;;;11.07;6.73;;;17.20;15.70;;;;;;5108653;28;20476;-74
2022/04/19 09:58:19;;;;;;;11.00;5.60;;;17.80;16.00;;;;;;5105698;28;20947;-74
2022/04/19 10:00:46;;;;;;;13.67;6.20;;;16.80;15.40;;;;;;5102190;28;20417;-74
2022/04/19 10:08:48;;;;;;;9.70;5.27;;;18.60;15.70;;;;;;5091131;28;20953;-74
2022/04/19 10:11:15;;;;;;;10.80;5.50;;;19.10;13.00;;;;;;5090930;28;20526;-73
2022/04/19 10:13:41;;;;;;;8.63;4.40;;;19.70;12.80;;;;;;5100485;28;20865;-74
2022/04/19 10:16:12;;;;;;;9.80;4.10;;;19.50;15.00;;;;;;5111210;28;20437;-74
2022/04/19 10:18:42;;;;;;;6.53;3.70;;;20.00;11.80;;;;;;5090812;28;20277;-75
2022/04/19 10:21:10;;;;;;;10.77;4.10;;;20.10;12.40;;;;;;5111089;28;20905;-74
2022/04/19 10:23:42;;;;;;;6.27;4.10;;;19.00;11.60;;;;;;5103730;28;20502;-74
2022/04/19 10:26:21;;;;;;;6.10;4.03;;;19.70;11.90;;;;;;5109420;28;20806;-74
2022/04/19 10:28:51;;;;;;;6.93;4.77;;;19.70;13.70;;;;;;5110210;28;20407;-74
2022/04/19 10:31:27;;;;;;;8.70;4.37;;;19.80;10.50;;;;;;5111385;28;20756;-74
2022/04/19 10:33:53;;;;;;;7.47;4.77;;;19.90;12.20;;;;;;5106873;28;20444;-75
2022/04/19 10:36:39;;;;;;;5.90;4.50;;;20.60;11.50;;;;;;5092572;28;20441;-74
2022/04/19 10:39:14;;;;;;;7.30;4.93;;;20.90;11.20;;;;;;5106032;28;20789;-74
2022/04/19 10:41:52;;;;;;;8.00;5.40;;;21.30;11.40;;;;;;5101609;28;20437;-75
2022/04/19 10:44:30;;;;;;;10.27;5.77;;;21.50;11.70;;;;;;5101435;28;20459;-74
2022/04/19 10:47:11;;;;;;;7.33;5.23;;;21.30;12.80;;;;;;5102902;28;20437;-75
2022/04/19 10:50:01;;;;;;;9.20;6.07;;;21.00;13.30;;;;;;5102546;28;20429;-75
2022/04/19 10:52:36;;;;;;;7.83;5.63;;;19.40;12.70;;;;;;5111699;28;20436;-74
2022/04/19 10:55:10;;;;;;;8.73;6.30;;;20.30;14.50;;;;;;5096551;28;20446;-75
2022/04/19 11:00:31;;;;;;;10.30;5.80;;;21.30;13.50;;;;;;5096450;28;20401;-74
2022/04/19 11:03:10;;;;;;;9.70;5.50;;;21.50;12.90;;;;;;5108233;28;20785;-75
2022/04/19 11:05:41;;;;;;;10.33;6.40;;;22.00;14.90;;;;;;5094143;28;20819;-73
2022/04/19 11:08:24;;;;;;;7.80;5.60;;;21.70;11.80;;;;;;5109169;28;20415;-73
2022/04/19 11:11:20;;;;;;;11.23;6.20;;;20.50;13.50;;;;;;5110037;28;20980;-73
2022/04/19 11:14:19;;;;;;;8.60;5.80;;;20.20;13.40;;;;;;5102079;28;20465;-73
2022/04/19 11:16:48;;;;;;;14.43;6.13;;;20.80;13.60;;;;;;5090733;28;20463;-73
2022/04/19 11:19:20;;;;;;;10.63;5.97;;;21.40;13.80;;;;;;5111252;28;20445;-73
2022/04/19 11:21:56;;;;;;;8.53;5.90;;;22.70;11.80;;;;;;5105149;28;20427;-74
2022/04/19 11:25:01;;;;;;;10.30;5.90;;;24.10;10.50;;;;;;5101721;28;20462;-74
2022/04/19 11:27:54;;;;;;;9.77;6.23;;;25.80;9.00;;;;;;5094264;28;20741;-74
2022/04/19 11:30:21;;;;;;;9.03;5.63;;;26.20;7.80;;;;;;5113977;28;20404;-74
2022/04/19 11:32:52;;;;;;;12.63;6.33;;;26.80;8.70;;;;;;5105070;28;20431;-74
2022/04/19 11:35:18;;;;;;;9.40;5.03;;;27.20;9.20;;;;;;5093637;28;20440;-74
2022/04/19 11:37:44;;;;;;;8.57;6.03;;;26.60;7.20;;;;;;5103742;28;20502;-74
2022/04/19 11:48:45;;;;;;;9.37;5.30;;;27.00;7.00;;;;;;5113903;28;20403;-75
2022/04/19 11:51:12;;;;;;;11.43;5.30;;;28.20;4.90;;;;;;5113203;28;20770;-75
2022/04/19 11:53:38;;;;;;;8.50;5.37;;;28.00;6.30;;;;;;5102973;28;20428;-76
2022/04/19 11:56:05;;;;;;;11.47;5.60;;;28.80;5.80;;;;;;5093035;28;20418;-75
2022/04/19 11:58:31;;;;;;;7.77;5.47;;;29.70;3.50;;;;;;5092808;28;20543;-73
2022/04/19 12:01:05;;;;;;;9.13;5.80;;;28.50;3.60;;;;;;5092619;28;20907;-75
2022/04/19 12:03:36;;;;;;;7.97;6.20;;;28.80;5.20;;;;;;5093745;28;20419;-75
2022/04/19 12:06:12;;;;;;;9.30;4.90;;;28.80;5.00;;;;;;5093106;28;20393;-75
2022/04/19 12:08:58;;;;;;;10.63;5.40;;;28.30;4.80;;;;;;5093514;28;20420;-75
2022/04/19 12:11:23;;;;;;;8.20;5.37;;;25.00;6.70;;;;;;5103688;28;20435;-76
2022/04/19 12:13:50;;;;;;;8.00;5.37;;;26.50;7.90;;;;;;5112623;28;20446;-76
2022/04/19 12:16:35;;;;;;;13.80;5.20;;;28.70;6.30;;;;;;5113023;28;20181;-75
2022/04/19 12:19:02;;;;;;;7.03;5.27;;;29.40;5.30;;;;;;5112913;28;20415;-75
2022/04/19 12:21:45;;;;;;;10.70;5.40;;;30.60;4.50;;;;;;5111673;28;20416;-76
2022/04/19 12:24:17;;;;;;;16.57;5.83;;;32.10;1.60;;;;;;5112427;28;20949;-75
2022/04/19 12:26:42;;;;;;;7.97;5.67;;;30.60;1.70;;;;;;5112711;28;20422;-76
2022/04/19 12:29:13;;;;;;;6.80;5.50;;;30.50;3.00;;;;;;5112680;28;20416;-75
2022/04/19 12:31:41;;;;;;;17.03;5.57;;;29.00;2.50;;;;;;5111955;28;20201;-76
2022/04/19 12:34:08;;;;;;;19.37;5.60;;;28.40;7.10;;;;;;5112394;28;20429;-76
2022/04/19 12:36:48;;;;;;;9.53;5.40;;;29.30;5.10;;;;;;5105578;28;21012;-76
2022/04/19 12:39:15;;;;;;;8.50;5.40;;;29.80;3.80;;;;;;5092457;28;20412;-74
2022/04/19 12:41:43;;;;;;;15.03;5.33;;;30.80;3.50;;;;;;5091983;28;20415;-76
2022/04/19 12:44:12;;;;;;;6.40;5.00;;;30.50;2.70;;;;;;5091982;28;20923;-74
2022/04/19 12:46:48;;;;;;;8.17;5.23;;;29.40;2.50;;;;;;5095759;28;20419;-74
2022/04/19 12:49:25;;;;;;;8.53;5.33;;;27.90;5.10;;;;;;5112323;28;20882;-74
2022/04/19 12:52:20;;;;;;;14.20;5.80;;;25.70;5.80;;;;;;5112107;28;20418;-75
2022/04/19 12:54:50;;;;;;;8.30;5.80;;;26.40;7.20;;;;;;5009389;28;20449;-74
2022/04/19 13:00:38;;;;;;;9.50;6.10;;;26.10;5.20;;;;;;5009606;28;20449;-75
2022/04/19 13:03:04;;;;;;;11.57;5.83;;;26.50;6.00;;;;;;5009617;28;20423;-76
2022/04/19 13:14:02;;;;;;;8.10;5.73;;;26.40;6.20;;;;;;4969785;28;20489;-76
2022/04/19 13:16:28;;;;;;;11.07;5.90;;;27.40;7.60;;;;;;4968182;28;20831;-75
2022/04/19 13:18:53;;;;;;;7.20;5.70;;;28.30;5.20;;;;;;4968420;28;20199;-75
2022/04/19 13:21:19;;;;;;;16.30;6.70;;;29.70;2.90;;;;;;4968162;28;20198;-75
2022/04/19 13:23:45;;;;;;;10.80;5.57;;;30.30;3.20;;;;;;4969417;28;20666;-75
2022/04/19 13:26:10;;;;;;;10.10;5.80;;;29.30;3.60;;;;;;4968960;28;20240;-75
2022/04/19 13:28:37;;;;;;;8.77;5.80;;;29.20;2.30;;;;;;4969810;28;20704;-76
2022/04/19 13:31:03;;;;;;;8.80;5.33;;;29.00;2.30;;;;;;4996078;28;20581;-75
2022/04/19 13:33:30;;;;;;;11.20;5.97;;;30.10;3.10;;;;;;5025380;28;20434;-76
2022/04/19 13:35:56;;;;;;;9.60;5.60;;;30.90;1.00;;;;;;5028813;28;20184;-76
2022/04/19 13:38:24;;;;;;;9.60;5.33;;;31.20;3.30;;;;;;5035846;28;20848;-76